Time;durP1;ratioP1;P1;durP2;ratioP2;P2;SDS_P1;SDS_P2;PMS_P1;PMS_P2;Temp;Humidity;BMP_temperature;BMP_pressure;BME280_temperature;BME280_humidity;BME280_pressure;Samples;Min_cycle;Max_cycle;Signal;HPM_P1;HPM_P2
2023/03/07 00:01:56;;;;;;;17.00;12.90;;;2.50;99.90;;;;;;5005788;28;21051;-63
2023/03/07 00:04:26;;;;;;;16.93;13.00;;;2.50;99.90;;;;;;5026882;28;20987;-62
2023/03/07 00:06:56;;;;;;;17.67;13.00;;;2.50;99.90;;;;;;5027465;28;20487;-62
2023/03/07 00:09:23;;;;;;;18.63;14.33;;;2.40;99.90;;;;;;5033996;28;20460;-65
2023/03/07 00:11:52;;;;;;;20.50;14.50;;;2.40;99.90;;;;;;5014031;28;21038;-67
2023/03/07 00:14:20;;;;;;;18.70;15.10;;;2.40;99.90;;;;;;5012086;28;20471;-67
2023/03/07 00:16:50;;;;;;;23.03;16.17;;;2.40;99.90;;;;;;5011867;28;20958;-64
2023/03/07 00:19:18;;;;;;;21.10;15.77;;;2.40;99.90;;;;;;5003774;28;20486;-66
2023/03/07 00:21:47;;;;;;;21.83;16.50;;;2.40;99.90;;;;;;5001511;28;20510;-63
2023/03/07 00:24:15;;;;;;;22.30;15.97;;;2.30;99.90;;;;;;5006887;28;20483;-64
2023/03/07 00:26:43;;;;;;;21.73;15.80;;;2.40;99.90;;;;;;5006819;28;21535;-64
2023/03/07 00:29:11;;;;;;;22.30;16.20;;;2.40;99.90;;;;;;5011353;28;20478;-65
2023/03/07 00:31:39;;;;;;;24.03;17.40;;;2.40;99.90;;;;;;5003016;28;20487;-66
2023/03/07 00:34:07;;;;;;;24.03;17.40;;;2.40;99.90;;;;;;5005465;28;21011;-65
2023/03/07 00:36:35;;;;;;;26.30;17.97;;;2.40;99.90;;;;;;5014933;28;20463;-64
2023/03/07 00:39:05;;;;;;;24.47;17.87;;;2.40;99.90;;;;;;5004289;28;21176;-65
2023/03/07 00:41:33;;;;;;;26.80;19.10;;;2.40;99.90;;;;;;5007961;28;20495;-65
2023/03/07 00:44:01;;;;;;;28.23;19.63;;;2.40;99.90;;;;;;5004105;28;20480;-64
2023/03/07 00:46:29;;;;;;;27.00;19.30;;;2.30;99.90;;;;;;4999716;28;20491;-66
2023/03/07 00:48:57;;;;;;;26.90;19.50;;;2.30;99.90;;;;;;5007447;28;21095;-64
2023/03/07 00:51:25;;;;;;;27.70;19.80;;;2.30;99.90;;;;;;5003273;28;20494;-65
2023/03/07 00:53:53;;;;;;;27.90;18.70;;;2.30;99.90;;;;;;5004328;28;20482;-65
2023/03/07 00:56:24;;;;;;;29.87;21.03;;;2.30;99.90;;;;;;5008119;28;20495;-65
2023/03/07 00:58:53;;;;;;;30.70;21.13;;;2.40;99.90;;;;;;5003224;28;20475;-66
2023/03/07 01:01:22;;;;;;;28.60;20.77;;;2.40;99.90;;;;;;5006920;28;20509;-64
2023/03/07 01:03:52;;;;;;;30.10;20.87;;;2.40;99.90;;;;;;5008724;28;20842;-66
2023/03/07 01:06:23;;;;;;;26.73;19.50;;;2.40;99.90;;;;;;5008176;28;21451;-65
2023/03/07 01:08:52;;;;;;;27.80;19.83;;;2.40;99.90;;;;;;5001731;28;20477;-66
2023/03/07 01:11:20;;;;;;;28.00;20.10;;;2.50;99.90;;;;;;5014840;28;20483;-66
2023/03/07 01:13:49;;;;;;;28.57;20.37;;;2.50;99.90;;;;;;5009293;28;21109;-66
2023/03/07 01:16:19;;;;;;;31.50;22.37;;;2.50;99.90;;;;;;5005258;28;21081;-66
2023/03/07 01:18:50;;;;;;;28.10;20.30;;;2.50;99.90;;;;;;5000283;28;20530;-66
2023/03/07 01:21:20;;;;;;;27.67;20.10;;;2.60;99.90;;;;;;5007463;28;20496;-66
2023/03/07 01:23:49;;;;;;;29.73;20.00;;;2.60;99.90;;;;;;5010291;28;21026;-65
2023/03/07 01:26:19;;;;;;;28.77;19.37;;;2.60;99.90;;;;;;5005807;28;20476;-66
2023/03/07 01:28:49;;;;;;;28.90;20.40;;;2.60;99.90;;;;;;5006940;28;20491;-64
2023/03/07 01:31:17;;;;;;;29.97;21.23;;;2.60;99.90;;;;;;5002145;28;20495;-65
2023/03/07 01:33:47;;;;;;;29.20;21.40;;;2.60;99.90;;;;;;5008480;28;20566;-66
2023/03/07 01:36:18;;;;;;;27.17;19.50;;;2.60;99.90;;;;;;5009278;28;20486;-65
2023/03/07 01:38:46;;;;;;;25.07;20.03;;;2.60;99.90;;;;;;5006667;28;20556;-64
2023/03/07 01:41:15;;;;;;;27.27;18.83;;;2.70;99.90;;;;;;5004322;28;20495;-64
2023/03/07 01:43:43;;;;;;;26.43;19.07;;;2.70;99.90;;;;;;4998834;28;20595;-65
2023/03/07 01:46:36;;;;;;;26.90;19.70;;;2.60;99.90;;;;;;5003046;28;20476;-66
2023/03/07 01:49:10;;;;;;;27.00;19.60;;;2.60;99.90;;;;;;5014264;28;20470;-66
2023/03/07 01:51:40;;;;;;;26.03;19.03;;;2.60;99.90;;;;;;5008522;28;20514;-66
2023/03/07 01:54:11;;;;;;;26.70;19.50;;;2.60;99.90;;;;;;5017676;28;20475;-66
2023/03/07 01:56:40;;;;;;;29.93;21.53;;;2.60;99.90;;;;;;5011296;28;20471;-65
2023/03/07 01:59:08;;;;;;;26.00;19.43;;;2.60;99.90;;;;;;5011864;28;20483;-66
2023/03/07 02:01:38;;;;;;;26.93;19.67;;;2.50;99.90;;;;;;5004224;28;20526;-65
2023/03/07 02:04:11;;;;;;;27.60;19.83;;;2.50;99.90;;;;;;5013603;28;20477;-66
2023/03/07 02:06:40;;;;;;;26.23;19.30;;;2.50;99.90;;;;;;5010976;28;20974;-65
2023/03/07 02:09:12;;;;;;;28.73;21.03;;;2.50;99.90;;;;;;5009613;28;20499;-64
2023/03/07 02:11:42;;;;;;;29.80;20.70;;;2.50;99.90;;;;;;5009122;28;20500;-65
2023/03/07 02:14:10;;;;;;;28.63;21.30;;;2.50;99.90;;;;;;5013293;28;21958;-66
2023/03/07 02:16:43;;;;;;;29.40;21.70;;;2.50;99.90;;;;;;5006341;28;20467;-66
2023/03/07 02:19:25;;;;;;;29.70;21.80;;;2.50;99.90;;;;;;5007255;28;20470;-65
2023/03/07 02:22:05;;;;;;;29.10;22.20;;;2.50;99.90;;;;;;5020088;28;21013;-65
2023/03/07 02:24:39;;;;;;;30.13;21.50;;;2.50;99.90;;;;;;5007414;28;20538;-65
2023/03/07 02:27:08;;;;;;;30.63;20.80;;;2.50;99.90;;;;;;5010515;28;20822;-66
2023/03/07 02:29:38;;;;;;;27.20;20.17;;;2.50;99.90;;;;;;5008259;28;20468;-66
2023/03/07 02:32:06;;;;;;;26.20;19.33;;;2.50;99.90;;;;;;5010230;28;20491;-65
2023/03/07 02:34:34;;;;;;;27.07;18.87;;;2.60;99.90;;;;;;5013313;28;20490;-66
2023/03/07 02:37:08;;;;;;;26.90;19.80;;;2.50;99.90;;;;;;5008222;28;20482;-66
2023/03/07 02:39:36;;;;;;;25.60;20.03;;;2.50;99.90;;;;;;5020361;28;20476;-65
2023/03/07 02:42:10;;;;;;;24.93;18.70;;;2.50;99.90;;;;;;5021154;28;20493;-66
2023/03/07 02:44:37;;;;;;;28.00;19.87;;;2.50;99.90;;;;;;5036317;28;20459;-65
2023/03/07 02:47:07;;;;;;;27.33;19.17;;;2.50;99.90;;;;;;5044713;28;20491;-66
2023/03/07 02:49:35;;;;;;;24.83;19.37;;;2.50;99.90;;;;;;5040111;28;20530;-64
2023/03/07 02:52:04;;;;;;;26.97;19.70;;;2.50;99.90;;;;;;5023519;28;21171;-66
2023/03/07 02:54:32;;;;;;;25.27;18.47;;;2.50;99.90;;;;;;5014030;28;20485;-66
2023/03/07 02:57:00;;;;;;;25.53;18.60;;;2.50;99.90;;;;;;5014318;28;20478;-64
2023/03/07 02:59:29;;;;;;;25.20;17.13;;;2.50;99.90;;;;;;5017238;28;20467;-66
2023/03/07 03:01:58;;;;;;;26.13;19.10;;;2.50;99.90;;;;;;5014369;28;20492;-66
2023/03/07 03:04:26;;;;;;;23.33;18.13;;;2.50;99.90;;;;;;5007973;28;20511;-66
2023/03/07 03:06:54;;;;;;;25.77;19.03;;;2.50;99.90;;;;;;5007805;28;20483;-66
2023/03/07 03:09:22;;;;;;;26.70;18.63;;;2.50;99.90;;;;;;5020656;28;20483;-64
2023/03/07 03:11:50;;;;;;;26.47;18.70;;;2.50;99.90;;;;;;5015700;28;20515;-65
2023/03/07 03:14:18;;;;;;;26.00;18.37;;;2.50;99.90;;;;;;5008980;28;20555;-66
2023/03/07 03:16:48;;;;;;;27.47;18.70;;;2.50;99.90;;;;;;5017632;28;20478;-66
2023/03/07 03:19:16;;;;;;;24.60;17.60;;;2.50;99.90;;;;;;5014609;28;20991;-66
2023/03/07 03:21:44;;;;;;;24.23;17.60;;;2.50;99.90;;;;;;5014291;28;20488;-66
2023/03/07 03:24:12;;;;;;;25.60;18.67;;;2.50;99.90;;;;;;5016438;28;20941;-66
2023/03/07 03:26:40;;;;;;;23.90;16.90;;;2.50;99.90;;;;;;5019024;28;20513;-66
2023/03/07 03:29:08;;;;;;;22.47;16.10;;;2.60;99.90;;;;;;5014967;28;20495;-66
2023/03/07 03:31:36;;;;;;;23.87;18.60;;;2.60;99.90;;;;;;5010779;28;21060;-67
2023/03/07 03:34:06;;;;;;;24.10;17.83;;;2.60;99.90;;;;;;5011006;28;20468;-64
2023/03/07 03:36:34;;;;;;;20.90;16.50;;;2.60;99.90;;;;;;5010913;28;20471;-63
2023/03/07 03:39:02;;;;;;;23.23;16.03;;;2.70;99.90;;;;;;5010705;28;20530;-63
2023/03/07 03:41:30;;;;;;;21.23;16.60;;;2.70;99.90;;;;;;5019633;28;20929;-64
2023/03/07 03:43:58;;;;;;;20.80;15.03;;;2.70;99.90;;;;;;5019301;28;20472;-64
2023/03/07 03:46:26;;;;;;;21.03;15.70;;;2.70;99.90;;;;;;5015515;28;20845;-64
2023/03/07 03:48:55;;;;;;;21.90;16.40;;;2.80;99.90;;;;;;5010970;28;20582;-63
2023/03/07 03:51:25;;;;;;;20.80;15.60;;;2.80;99.90;;;;;;5012193;28;20495;-64
2023/03/07 03:53:53;;;;;;;17.93;14.13;;;2.80;99.90;;;;;;5020124;28;20472;-63
2023/03/07 03:56:23;;;;;;;20.20;15.43;;;2.90;99.90;;;;;;5016104;28;20470;-64
2023/03/07 03:58:52;;;;;;;21.67;15.70;;;2.90;99.90;;;;;;5014945;28;20808;-63
2023/03/07 04:01:21;;;;;;;21.73;16.20;;;2.90;99.90;;;;;;5005419;28;20487;-63
2023/03/07 04:03:51;;;;;;;20.97;15.30;;;2.90;99.90;;;;;;5004981;28;20474;-64
2023/03/07 04:06:22;;;;;;;21.47;15.40;;;2.90;99.90;;;;;;5008410;28;20975;-64
2023/03/07 04:08:52;;;;;;;22.10;15.53;;;3.00;99.90;;;;;;5016110;28;20487;-64
2023/03/07 04:11:20;;;;;;;18.40;13.90;;;3.00;99.90;;;;;;5014497;28;20494;-64
2023/03/07 04:13:48;;;;;;;18.63;15.00;;;3.00;99.90;;;;;;5020992;28;20589;-66
2023/03/07 04:16:17;;;;;;;22.00;14.67;;;3.00;99.90;;;;;;5016647;28;20474;-66
2023/03/07 04:18:45;;;;;;;19.63;13.67;;;3.00;99.90;;;;;;5015033;28;20926;-64
2023/03/07 04:21:13;;;;;;;16.53;12.37;;;3.00;99.90;;;;;;5012434;28;20519;-63
2023/03/07 04:23:41;;;;;;;19.10;13.90;;;3.00;99.90;;;;;;5013263;28;20518;-62
2023/03/07 04:26:11;;;;;;;18.27;13.00;;;3.10;99.90;;;;;;5014915;28;20463;-63
2023/03/07 04:28:44;;;;;;;17.07;12.40;;;3.10;99.90;;;;;;5019600;28;20519;-62
2023/03/07 04:31:14;;;;;;;17.67;12.50;;;3.10;99.90;;;;;;5005897;28;20649;-63
2023/03/07 04:33:42;;;;;;;14.30;10.90;;;3.10;99.90;;;;;;5002016;28;20567;-66
2023/03/07 04:36:11;;;;;;;15.07;12.20;;;3.10;99.90;;;;;;5002839;28;20471;-62
2023/03/07 04:38:39;;;;;;;18.40;10.93;;;3.10;99.90;;;;;;5006093;28;20513;-64
2023/03/07 04:41:11;;;;;;;15.70;10.77;;;3.10;99.90;;;;;;5015399;28;20606;-64
2023/03/07 04:43:38;;;;;;;13.90;9.37;;;3.10;99.90;;;;;;5013643;28;20482;-65
2023/03/07 04:46:07;;;;;;;13.33;9.33;;;3.10;99.90;;;;;;5010346;28;20483;-63
2023/03/07 04:48:36;;;;;;;8.70;7.33;;;3.10;99.90;;;;;;5007593;28;20495;-64
2023/03/07 04:51:04;;;;;;;8.83;6.77;;;3.20;99.90;;;;;;5005444;28;20499;-65
2023/03/07 04:53:32;;;;;;;9.50;6.53;;;3.10;99.90;;;;;;5017886;28;20464;-66
2023/03/07 04:56:01;;;;;;;9.90;6.07;;;3.20;99.90;;;;;;5013379;28;20476;-66
2023/03/07 04:58:31;;;;;;;10.00;6.03;;;3.20;99.90;;;;;;5008288;28;20464;-66
2023/03/07 05:01:01;;;;;;;5.70;4.90;;;3.20;99.90;;;;;;5010384;28;20580;-65
2023/03/07 05:03:30;;;;;;;8.40;5.07;;;3.20;99.90;;;;;;5004280;28;20471;-69
2023/03/07 05:06:01;;;;;;;5.80;4.27;;;3.20;99.90;;;;;;5002438;28;21160;-62
2023/03/07 05:08:29;;;;;;;7.53;4.70;;;3.20;99.90;;;;;;5003747;28;21593;-64
2023/03/07 05:10:58;;;;;;;7.97;4.10;;;3.20;99.90;;;;;;5009371;28;20496;-64
2023/03/07 05:13:26;;;;;;;7.00;3.60;;;3.20;99.90;;;;;;5005993;28;20932;-64
2023/03/07 05:15:57;;;;;;;10.20;3.80;;;3.30;99.90;;;;;;5010166;28;20474;-65
2023/03/07 05:18:26;;;;;;;5.13;3.20;;;3.30;99.90;;;;;;5002840;28;20483;-64
2023/03/07 05:20:54;;;;;;;7.00;3.40;;;3.30;99.90;;;;;;5006748;28;20499;-64
2023/03/07 05:23:23;;;;;;;7.13;3.60;;;3.30;99.90;;;;;;5011007;28;20475;-63
2023/03/07 05:25:51;;;;;;;4.17;2.93;;;3.30;99.90;;;;;;5007043;28;20459;-64
2023/03/07 05:28:19;;;;;;;7.90;3.10;;;3.30;99.90;;;;;;5005120;28;20470;-65
2023/03/07 05:30:48;;;;;;;4.47;2.67;;;3.30;99.90;;;;;;5008816;28;20502;-63
2023/03/07 05:33:18;;;;;;;4.30;3.00;;;3.30;99.90;;;;;;5005653;28;20463;-62
2023/03/07 05:35:46;;;;;;;6.03;2.40;;;3.30;99.90;;;;;;5024012;28;20531;-64
2023/03/07 05:38:15;;;;;;;2.30;2.10;;;3.30;99.90;;;;;;5016957;28;20487;-66
2023/03/07 05:40:43;;;;;;;2.90;2.20;;;3.40;99.90;;;;;;5009397;28;20495;-65
2023/03/07 05:43:10;;;;;;;2.40;2.17;;;3.30;99.90;;;;;;5004183;28;21014;-66
2023/03/07 05:45:38;;;;;;;6.10;2.20;;;3.30;99.90;;;;;;5019209;28;20478;-71
2023/03/07 05:48:06;;;;;;;4.40;1.97;;;3.30;99.90;;;;;;5009484;28;20481;-72
2023/03/07 05:50:37;;;;;;;3.93;2.57;;;3.30;99.90;;;;;;5007394;28;20894;-63
2023/03/07 05:53:05;;;;;;;6.40;1.83;;;3.30;99.90;;;;;;5009707;28;20468;-64
2023/03/07 05:55:33;;;;;;;7.30;2.27;;;3.30;99.90;;;;;;5029582;28;20458;-62
2023/03/07 05:58:01;;;;;;;5.07;2.67;;;3.30;99.90;;;;;;5038034;28;20462;-64
2023/03/07 06:00:29;;;;;;;4.20;1.87;;;3.30;99.90;;;;;;5034554;28;20497;-63
2023/03/07 06:02:57;;;;;;;4.20;2.00;;;3.30;99.90;;;;;;5015301;28;20475;-63
2023/03/07 06:05:25;;;;;;;4.00;1.93;;;3.30;99.90;;;;;;5009535;28;20475;-64
2023/03/07 06:07:54;;;;;;;4.70;1.83;;;3.30;99.90;;;;;;5004131;28;20486;-63
2023/03/07 06:10:22;;;;;;;2.83;1.27;;;3.30;99.90;;;;;;4998208;28;20510;-65
2023/03/07 06:12:51;;;;;;;4.37;2.17;;;3.40;99.90;;;;;;5010815;28;20470;-64
2023/03/07 06:15:19;;;;;;;6.07;1.73;;;3.40;99.90;;;;;;5009580;28;21014;-65
2023/03/07 06:17:47;;;;;;;2.57;1.60;;;3.40;99.90;;;;;;5013480;28;20475;-65
2023/03/07 06:20:15;;;;;;;3.10;1.60;;;3.40;99.90;;;;;;5007602;28;20467;-65
2023/03/07 06:22:43;;;;;;;5.23;2.13;;;3.40;99.90;;;;;;5020247;28;20758;-65
2023/03/07 06:25:14;;;;;;;3.60;1.80;;;3.40;99.90;;;;;;5036232;28;20479;-65
2023/03/07 06:27:42;;;;;;;7.80;2.03;;;3.50;99.90;;;;;;5039164;28;20469;-64
2023/03/07 06:30:12;;;;;;;3.17;1.70;;;3.50;99.90;;;;;;5039017;28;20732;-65
2023/03/07 06:32:40;;;;;;;5.70;1.90;;;3.50;99.90;;;;;;5036950;28;20468;-65
2023/03/07 06:35:09;;;;;;;5.03;1.50;;;3.50;99.90;;;;;;5035499;28;20463;-65
2023/03/07 06:37:37;;;;;;;3.10;1.87;;;3.50;99.90;;;;;;5031625;28;20481;-65
2023/03/07 06:40:08;;;;;;;4.97;1.30;;;3.40;99.90;;;;;;5027023;28;20468;-65
2023/03/07 06:42:38;;;;;;;6.23;1.43;;;3.50;99.90;;;;;;5025017;28;20492;-65
2023/03/07 06:45:07;;;;;;;5.10;1.60;;;3.50;99.90;;;;;;5023140;28;20476;-65
2023/03/07 06:47:35;;;;;;;8.53;1.80;;;3.50;99.90;;;;;;5023125;28;20472;-65
2023/03/07 06:50:02;;;;;;;5.77;1.60;;;3.50;99.90;;;;;;5023116;28;20967;-65
2023/03/07 06:52:30;;;;;;;1.53;0.90;;;3.60;99.90;;;;;;5020838;28;21014;-65
2023/03/07 06:54:59;;;;;;;8.00;1.60;;;3.60;99.90;;;;;;5018399;28;20471;-65
2023/03/07 06:57:28;;;;;;;4.13;1.50;;;3.60;99.90;;;;;;5022841;28;20464;-65
2023/03/07 06:59:57;;;;;;;4.97;1.63;;;3.60;99.90;;;;;;5021207;28;20476;-65
2023/03/07 07:02:25;;;;;;;2.93;1.57;;;3.60;99.90;;;;;;5022454;28;20476;-66
2023/03/07 07:04:53;;;;;;;5.60;1.90;;;3.70;99.90;;;;;;5021743;28;20544;-65
2023/03/07 07:07:21;;;;;;;4.47;1.80;;;3.60;99.90;;;;;;5027715;28;20463;-65
2023/03/07 07:09:49;;;;;;;4.13;1.63;;;3.70;99.90;;;;;;5021983;28;21077;-65
2023/03/07 07:12:17;;;;;;;3.03;1.53;;;3.70;99.90;;;;;;5021061;28;20491;-65
2023/03/07 07:14:45;;;;;;;3.30;1.53;;;3.70;99.90;;;;;;5037282;28;20479;-65
2023/03/07 07:17:14;;;;;;;3.67;1.40;;;3.80;99.90;;;;;;5038028;28;20502;-65
2023/03/07 07:19:42;;;;;;;2.90;1.20;;;3.80;99.90;;;;;;5033943;28;20475;-65
2023/03/07 07:22:10;;;;;;;6.10;1.90;;;3.90;99.90;;;;;;5036472;28;20856;-65
2023/03/07 07:24:39;;;;;;;7.30;1.40;;;3.90;99.90;;;;;;5039366;28;20480;-67
2023/03/07 07:27:07;;;;;;;3.93;1.40;;;3.90;99.90;;;;;;5039656;28;20467;-65
2023/03/07 07:29:35;;;;;;;3.53;1.20;;;3.90;99.90;;;;;;5035664;28;20511;-65
2023/03/07 07:32:03;;;;;;;3.37;1.10;;;3.90;99.90;;;;;;5037975;28;20488;-64
2023/03/07 07:34:32;;;;;;;3.53;1.27;;;3.90;99.90;;;;;;5040498;28;20514;-65
2023/03/07 07:37:00;;;;;;;4.30;1.10;;;4.00;99.90;;;;;;5038575;28;20486;-65
2023/03/07 07:39:28;;;;;;;3.87;1.20;;;4.00;99.90;;;;;;5037583;28;20476;-65
2023/03/07 07:41:56;;;;;;;4.03;1.60;;;4.00;99.90;;;;;;5037958;28;20485;-65
2023/03/07 07:44:24;;;;;;;1.67;1.10;;;4.00;99.90;;;;;;5038708;28;20469;-65
2023/03/07 07:46:52;;;;;;;3.10;1.50;;;4.00;99.90;;;;;;5034130;28;20471;-65
2023/03/07 07:49:20;;;;;;;4.70;1.40;;;4.00;99.90;;;;;;5020276;28;20887;-64
2023/03/07 07:51:50;;;;;;;3.33;1.23;;;4.10;99.90;;;;;;5020956;28;20499;-65
2023/03/07 07:54:17;;;;;;;3.57;1.30;;;4.10;99.90;;;;;;5021503;28;20823;-65
2023/03/07 07:56:45;;;;;;;5.00;1.30;;;4.10;99.90;;;;;;5020314;28;20822;-65
2023/03/07 07:59:13;;;;;;;4.73;1.47;;;4.10;99.90;;;;;;5017642;28;20471;-66
2023/03/07 08:01:42;;;;;;;2.17;1.23;;;4.20;99.90;;;;;;5020091;28;20491;-65
2023/03/07 08:04:10;;;;;;;5.47;1.53;;;4.20;99.90;;;;;;5020239;28;21114;-65
2023/03/07 08:06:38;;;;;;;5.67;1.70;;;4.20;99.90;;;;;;5022652;28;20463;-65
2023/03/07 08:09:07;;;;;;;3.57;1.80;;;4.20;99.90;;;;;;5020572;28;20471;-65
2023/03/07 08:11:35;;;;;;;5.00;1.40;;;4.30;99.90;;;;;;5018273;28;20480;-65
2023/03/07 08:14:03;;;;;;;3.23;1.47;;;4.30;99.90;;;;;;5021333;28;20479;-65
2023/03/07 08:16:31;;;;;;;8.80;1.50;;;4.40;99.90;;;;;;5018704;28;20468;-65
2023/03/07 08:19:00;;;;;;;4.60;1.50;;;4.40;99.90;;;;;;5020916;28;20468;-64
2023/03/07 08:21:28;;;;;;;5.07;1.60;;;4.30;99.90;;;;;;5016038;28;21005;-65
2023/03/07 08:23:57;;;;;;;3.27;1.40;;;4.20;99.90;;;;;;5022857;28;20478;-64
2023/03/07 08:26:26;;;;;;;3.13;1.57;;;4.10;99.90;;;;;;5021687;28;20476;-64
2023/03/07 08:28:54;;;;;;;3.77;2.07;;;4.00;99.90;;;;;;5020504;28;20555;-64
2023/03/07 08:31:23;;;;;;;5.73;1.83;;;3.90;99.90;;;;;;5019760;28;20918;-65
2023/03/07 08:33:52;;;;;;;3.87;1.50;;;3.80;99.90;;;;;;5033148;28;20483;-65
2023/03/07 08:36:20;;;;;;;7.30;2.17;;;3.90;99.90;;;;;;5043763;28;20463;-64
2023/03/07 08:38:50;;;;;;;5.60;1.77;;;3.90;99.90;;;;;;5042971;28;20482;-64
2023/03/07 08:41:20;;;;;;;3.63;1.47;;;3.90;99.90;;;;;;5042866;28;20484;-64
2023/03/07 08:43:50;;;;;;;5.43;1.70;;;3.90;99.90;;;;;;5044469;28;20482;-64
2023/03/07 08:46:18;;;;;;;5.50;1.67;;;4.00;99.90;;;;;;5024167;28;20467;-65
2023/03/07 08:48:46;;;;;;;4.23;1.40;;;4.10;99.90;;;;;;5021386;28;20531;-65
2023/03/07 08:51:17;;;;;;;9.80;1.57;;;4.10;99.90;;;;;;5019283;28;20494;-65
2023/03/07 08:53:45;;;;;;;3.87;1.50;;;4.20;99.90;;;;;;5019967;28;21010;-65
2023/03/07 08:56:15;;;;;;;7.57;1.90;;;4.20;99.90;;;;;;5021598;28;20502;-65
2023/03/07 08:58:43;;;;;;;4.90;1.70;;;4.30;99.90;;;;;;5024095;28;20570;-65
2023/03/07 09:01:13;;;;;;;6.37;1.50;;;4.20;99.90;;;;;;5022093;28;20483;-65
2023/03/07 09:03:42;;;;;;;12.53;2.17;;;4.20;99.90;;;;;;5024401;28;20479;-64
2023/03/07 09:06:16;;;;;;;4.13;1.47;;;4.20;99.90;;;;;;5022871;28;20472;-65
2023/03/07 09:08:46;;;;;;;4.00;1.30;;;4.20;99.90;;;;;;5022518;28;20562;-65
2023/03/07 09:11:14;;;;;;;6.80;1.63;;;4.20;99.90;;;;;;5019532;28;20502;-65
2023/03/07 09:13:42;;;;;;;7.07;2.10;;;4.30;99.90;;;;;;5018666;28;20475;-65
2023/03/07 09:16:21;;;;;;;5.13;1.70;;;4.30;99.90;;;;;;5023562;28;20528;-65
2023/03/07 09:18:49;;;;;;;5.00;1.87;;;4.30;99.90;;;;;;5024137;28;20502;-65
2023/03/07 09:21:17;;;;;;;5.13;1.80;;;4.30;99.90;;;;;;5021764;28;21234;-65
2023/03/07 09:23:45;;;;;;;9.83;1.97;;;4.30;99.90;;;;;;5023214;28;20483;-65
2023/03/07 09:26:13;;;;;;;4.77;1.97;;;4.40;99.90;;;;;;5019775;28;20941;-65
2023/03/07 09:28:42;;;;;;;4.97;1.60;;;4.40;99.90;;;;;;5021527;28;20498;-65
2023/03/07 09:31:12;;;;;;;6.13;2.13;;;4.40;99.90;;;;;;5018286;28;20511;-65
2023/03/07 09:33:42;;;;;;;4.40;2.20;;;4.40;99.90;;;;;;5024765;28;20521;-64
2023/03/07 09:36:13;;;;;;;4.93;1.67;;;4.30;99.90;;;;;;5022166;28;20487;-65
2023/03/07 09:38:41;;;;;;;6.20;2.00;;;4.30;99.90;;;;;;5022983;28;20467;-64
2023/03/07 09:41:27;;;;;;;5.23;1.83;;;4.30;99.90;;;;;;5021232;28;20519;-65
2023/03/07 09:44:02;;;;;;;5.47;1.90;;;4.30;99.90;;;;;;5023428;28;20468;-67
2023/03/07 09:46:42;;;;;;;4.27;1.73;;;4.40;99.90;;;;;;5022022;28;20470;-64
2023/03/07 09:49:25;;;;;;;6.93;2.23;;;4.40;99.90;;;;;;5022842;28;20649;-65
2023/03/07 09:51:59;;;;;;;4.00;1.70;;;4.40;99.90;;;;;;5021930;28;20493;-64
2023/03/07 09:54:38;;;;;;;3.73;1.40;;;4.40;99.90;;;;;;5022757;28;20551;-65
2023/03/07 09:57:17;;;;;;;2.60;1.70;;;4.50;99.90;;;;;;5022829;28;20474;-65
2023/03/07 09:59:47;;;;;;;7.53;1.80;;;4.50;99.90;;;;;;5021863;28;20476;-65
2023/03/07 10:02:18;;;;;;;4.20;1.30;;;4.50;99.90;;;;;;5020324;28;20483;-65
2023/03/07 10:04:54;;;;;;;2.70;1.20;;;4.40;99.90;;;;;;5022586;28;20998;-65
2023/03/07 10:07:28;;;;;;;5.07;1.53;;;4.40;99.90;;;;;;5023598;28;20480;-66
2023/03/07 10:10:00;;;;;;;5.33;1.43;;;4.50;99.90;;;;;;5022583;28;20468;-65
2023/03/07 10:12:51;;;;;;;5.53;1.30;;;4.60;99.90;;;;;;5017720;28;20515;-65
2023/03/07 10:15:41;;;;;;;3.67;1.90;;;4.60;99.90;;;;;;5021997;28;20562;-65
2023/03/07 10:18:20;;;;;;;3.53;1.50;;;4.70;99.90;;;;;;5022219;28;20530;-65
2023/03/07 10:20:53;;;;;;;3.40;1.40;;;4.70;99.90;;;;;;5011998;28;20637;-64
2023/03/07 10:23:35;;;;;;;4.80;1.00;;;4.70;99.90;;;;;;4984542;28;1090498;-65
2023/03/07 10:26:09;;;;;;;3.13;1.00;;;4.60;99.90;;;;;;5022317;28;20517;-65
2023/03/07 10:28:39;;;;;;;4.40;1.27;;;4.60;99.90;;;;;;5020758;28;20472;-65
2023/03/07 10:31:20;;;;;;;2.37;1.23;;;4.60;99.90;;;;;;5022950;28;20492;-65
2023/03/07 10:33:50;;;;;;;2.50;0.90;;;4.50;99.90;;;;;;5024012;28;21049;-65
2023/03/07 10:36:23;;;;;;;8.07;1.10;;;4.50;99.90;;;;;;5023606;28;20470;-65
2023/03/07 10:39:03;;;;;;;2.43;1.40;;;4.40;99.90;;;;;;5023716;28;20469;-65
2023/03/07 10:41:31;;;;;;;2.00;0.97;;;4.40;99.90;;;;;;5022180;28;20483;-65
2023/03/07 10:43:59;;;;;;;4.03;1.40;;;4.40;99.90;;;;;;5022767;28;20908;-65
2023/03/07 10:46:29;;;;;;;1.90;0.80;;;4.40;99.90;;;;;;5022115;28;20483;-65
2023/03/07 10:49:07;;;;;;;3.70;1.17;;;4.50;99.90;;;;;;5023139;28;20478;-65
2023/03/07 10:51:50;;;;;;;3.43;1.10;;;4.50;99.90;;;;;;5015020;28;20495;-65
2023/03/07 10:54:21;;;;;;;4.80;1.20;;;4.50;99.90;;;;;;5022410;28;20476;-65
2023/03/07 10:57:10;;;;;;;4.10;1.10;;;4.50;99.90;;;;;;5022264;28;20497;-65
2023/03/07 10:59:39;;;;;;;3.57;1.23;;;4.50;99.90;;;;;;5022780;28;20477;-65
2023/03/07 11:02:34;;;;;;;4.43;1.40;;;4.50;99.90;;;;;;5020228;28;20851;-64
2023/03/07 11:05:02;;;;;;;4.90;2.23;;;4.40;99.90;;;;;;5022158;28;20478;-65
2023/03/07 11:07:34;;;;;;;4.30;1.40;;;4.40;99.90;;;;;;5019980;28;20882;-65
2023/03/07 11:10:31;;;;;;;5.80;1.93;;;4.40;99.90;;;;;;5021193;28;20472;-65
2023/03/07 11:12:59;;;;;;;3.70;1.33;;;4.50;99.90;;;;;;5021449;28;20491;-65
2023/03/07 11:15:27;;;;;;;3.30;1.30;;;4.50;99.90;;;;;;5022074;28;20472;-65
2023/03/07 11:17:55;;;;;;;3.43;1.37;;;4.60;99.90;;;;;;5021279;28;20479;-65
2023/03/07 11:20:26;;;;;;;4.30;1.20;;;4.60;99.90;;;;;;5019082;28;20502;-65
2023/03/07 11:23:14;;;;;;;6.20;1.67;;;4.70;99.90;;;;;;5022338;28;20475;-65
2023/03/07 11:25:43;;;;;;;4.40;2.27;;;4.90;99.90;;;;;;5020401;28;20479;-65
2023/03/07 11:28:29;;;;;;;3.57;1.40;;;5.00;99.90;;;;;;5022054;28;20538;-65
2023/03/07 11:31:05;;;;;;;3.10;1.30;;;5.00;99.90;;;;;;5039961;28;20457;-64
2023/03/07 11:33:47;;;;;;;3.60;1.27;;;5.00;99.90;;;;;;5045229;28;20507;-64
2023/03/07 11:36:31;;;;;;;4.23;1.40;;;4.90;99.90;;;;;;5045065;28;20529;-64
2023/03/07 11:39:06;;;;;;;3.17;1.20;;;4.80;99.90;;;;;;5028881;28;20510;-65
2023/03/07 11:41:37;;;;;;;2.90;1.40;;;4.70;99.90;;;;;;5024168;28;20483;-65
2023/03/07 11:44:27;;;;;;;3.23;1.03;;;4.80;99.90;;;;;;5020143;28;20521;-65
2023/03/07 11:47:33;;;;;;;2.60;1.37;;;4.90;99.90;;;;;;5022864;28;20846;-65
2023/03/07 11:50:13;;;;;;;2.97;1.10;;;5.20;99.90;;;;;;4943159;28;20482;-67
2023/03/07 11:53:21;;;;;;;2.93;1.33;;;5.50;99.90;;;;;;4942927;28;20855;-65
2023/03/07 11:56:06;;;;;;;3.50;1.40;;;5.70;99.90;;;;;;4970380;28;20833;-65
2023/03/07 11:58:57;;;;;;;6.40;2.57;;;5.80;99.90;;;;;;5021141;28;20471;-65
2023/03/07 12:01:30;;;;;;;5.33;1.10;;;5.80;99.90;;;;;;5012548;28;20492;-65
2023/03/07 12:04:26;;;;;;;4.50;1.33;;;5.80;99.90;;;;;;5021898;28;20475;-65
2023/03/07 12:07:04;;;;;;;2.80;1.33;;;5.80;99.90;;;;;;5020962;28;20467;-65
2023/03/07 12:09:45;;;;;;;4.50;1.10;;;5.80;99.90;;;;;;5020637;28;20470;-65
2023/03/07 12:12:39;;;;;;;2.13;1.07;;;5.90;99.90;;;;;;5016952;28;20491;-65
2023/03/07 12:15:25;;;;;;;2.13;1.10;;;6.10;99.90;;;;;;5017050;28;20494;-65
2023/03/07 12:18:03;;;;;;;3.60;1.00;;;6.20;99.90;;;;;;5020993;28;20479;-66
2023/03/07 12:20:37;;;;;;;4.57;1.10;;;6.40;99.90;;;;;;5019381;28;20515;-65
2023/03/07 12:23:15;;;;;;;5.23;1.63;;;6.80;99.90;;;;;;5013819;28;20578;-65
2023/03/07 12:25:46;;;;;;;5.83;1.27;;;7.30;99.90;;;;;;5019991;28;20471;-65
2023/03/07 12:28:21;;;;;;;2.17;1.20;;;7.70;99.90;;;;;;5015356;28;20478;-66
2023/03/07 12:30:55;;;;;;;3.30;0.97;;;8.20;99.90;;;;;;5020413;28;20483;-66
2023/03/07 12:33:28;;;;;;;6.37;1.80;;;8.80;99.90;;;;;;5019612;28;20492;-66
2023/03/07 12:36:01;;;;;;;3.23;1.00;;;9.50;84.80;;;;;;5019506;28;20476;-66
2023/03/07 12:38:37;;;;;;;6.60;1.17;;;11.10;71.00;;;;;;5020849;28;20491;-66
2023/03/07 12:41:19;;;;;;;4.70;1.13;;;13.10;53.90;;;;;;5012895;28;20594;-66
2023/03/07 12:43:53;;;;;;;3.80;1.00;;;14.90;44.90;;;;;;5020199;28;20463;-66
2023/03/07 12:46:27;;;;;;;5.20;0.90;;;16.90;40.50;;;;;;5019750;28;20480;-66
2023/03/07 12:49:00;;;;;;;6.60;1.40;;;18.30;34.80;;;;;;5021593;28;20850;-66
2023/03/07 12:51:34;;;;;;;2.40;1.00;;;19.30;33.70;;;;;;5018590;28;20496;-66
2023/03/07 12:54:10;;;;;;;4.47;1.10;;;19.10;30.00;;;;;;5015948;28;20494;-66
2023/03/07 12:56:47;;;;;;;3.90;1.27;;;17.90;29.60;;;;;;5021000;28;20486;-66
2023/03/07 12:59:19;;;;;;;2.80;1.20;;;18.50;30.00;;;;;;5019653;28;20472;-67
2023/03/07 13:01:52;;;;;;;3.50;1.27;;;17.30;29.90;;;;;;5030872;28;20476;-67
2023/03/07 13:04:27;;;;;;;4.73;1.23;;;16.70;30.80;;;;;;5023140;28;20468;-66
2023/03/07 13:07:00;;;;;;;4.10;1.40;;;18.00;32.20;;;;;;5018617;28;20475;-67
2023/03/07 13:09:31;;;;;;;2.93;1.17;;;19.60;30.90;;;;;;5019877;28;20468;-66